sensor_id;sensor_type;location;lat;lon;timestamp;pressure;altitude;pressure_sealevel;temperature;humidity
61963;BME280;47927;42.646;23.096;2023-03-26T00:01:21;91662.78;;;9.46;61.30
61963;BME280;47927;42.646;23.096;2023-03-26T00:03:48;91652.47;;;9.68;60.46
61963;BME280;47927;42.646;23.096;2023-03-26T00:06:21;91656.56;;;9.72;59.88
61963;BME280;47927;42.646;23.096;2023-03-26T00:08:51;91623.53;;;9.84;59.20
61963;BME280;47927;42.646;23.096;2023-03-26T00:11:18;91645.94;;;10.20;58.05
61963;BME280;47927;42.646;23.096;2023-03-26T00:13:45;91626.91;;;9.95;58.35
61963;BME280;47927;42.646;23.096;2023-03-26T00:16:13;91641.44;;;9.99;57.97
61963;BME280;47927;42.646;23.096;2023-03-26T00:18:40;91643.66;;;10.08;57.85
61963;BME280;47927;42.646;23.096;2023-03-26T00:21:07;91637.44;;;10.56;56.37
61963;BME280;47927;42.646;23.096;2023-03-26T00:23:34;91609.94;;;10.65;55.44
61963;BME280;47927;42.646;23.096;2023-03-26T00:26:01;91630.78;;;10.98;54.56
61963;BME280;47927;42.646;23.096;2023-03-26T00:28:28;91637.84;;;10.86;54.47
61963;BME280;47927;42.646;23.096;2023-03-26T00:30:59;91651.97;;;10.35;55.67
61963;BME280;47927;42.646;23.096;2023-03-26T00:33:25;91657.59;;;9.50;58.91
61963;BME280;47927;42.646;23.096;2023-03-26T00:35:56;91654.00;;;9.76;58.53
61963;BME280;47927;42.646;23.096;2023-03-26T00:38:24;91647.47;;;9.34;59.66
61963;BME280;47927;42.646;23.096;2023-03-26T00:40:51;91632.34;;;9.54;59.00
61963;BME280;47927;42.646;23.096;2023-03-26T00:43:17;91650.03;;;10.18;57.39
61963;BME280;47927;42.646;23.096;2023-03-26T00:45:48;91635.25;;;10.68;55.69
61963;BME280;47927;42.646;23.096;2023-03-26T00:48:15;91649.72;;;10.59;55.66
61963;BME280;47927;42.646;23.096;2023-03-26T00:50:42;91647.91;;;10.77;55.23
61963;BME280;47927;42.646;23.096;2023-03-26T00:53:08;91643.78;;;10.94;54.69
61963;BME280;47927;42.646;23.096;2023-03-26T00:55:36;91649.38;;;10.53;55.51
61963;BME280;47927;42.646;23.096;2023-03-26T00:58:02;91644.91;;;10.36;56.00
61963;BME280;47927;42.646;23.096;2023-03-26T01:00:29;91642.66;;;10.38;56.25
61963;BME280;47927;42.646;23.096;2023-03-26T01:02:57;91638.19;;;10.53;55.42
61963;BME280;47927;42.646;23.096;2023-03-26T01:08:04;91644.78;;;10.07;56.69
61963;BME280;47927;42.646;23.096;2023-03-26T01:10:43;91622.84;;;10.08;56.23
61963;BME280;47927;42.646;23.096;2023-03-26T01:13:22;91637.06;;;10.29;55.85
61963;BME280;47927;42.646;23.096;2023-03-26T01:15:49;91644.44;;;10.23;55.96
61963;BME280;47927;42.646;23.096;2023-03-26T01:18:22;91635.91;;;10.19;55.98
61963;BME280;47927;42.646;23.096;2023-03-26T01:21:09;91651.94;;;10.28;55.60
61963;BME280;47927;42.646;23.096;2023-03-26T01:23:46;91653.06;;;10.34;55.52
61963;BME280;47927;42.646;23.096;2023-03-26T01:28:43;91657.84;;;10.25;55.68
61963;BME280;47927;42.646;23.096;2023-03-26T01:31:17;91653.75;;;10.24;55.96
61963;BME280;47927;42.646;23.096;2023-03-26T01:34:49;91652.25;;;10.23;56.19
61963;BME280;47927;42.646;23.096;2023-03-26T01:39:58;91659.31;;;10.12;55.74
61963;BME280;47927;42.646;23.096;2023-03-26T01:42:38;91653.28;;;9.86;56.32
61963;BME280;47927;42.646;23.096;2023-03-26T01:45:15;91642.88;;;9.86;55.83
61963;BME280;47927;42.646;23.096;2023-03-26T01:47:44;91661.88;;;9.94;56.03
61963;BME280;47927;42.646;23.096;2023-03-26T01:50:11;91656.31;;;10.02;55.54
61963;BME280;47927;42.646;23.096;2023-03-26T01:52:37;91662.59;;;9.98;55.63
61963;BME280;47927;42.646;23.096;2023-03-26T01:55:03;91651.81;;;9.96;55.54
61963;BME280;47927;42.646;23.096;2023-03-26T02:00:28;91666.94;;;9.62;56.63
61963;BME280;47927;42.646;23.096;2023-03-26T02:03:10;91667.28;;;9.60;56.62
61963;BME280;47927;42.646;23.096;2023-03-26T02:05:56;91654.72;;;9.76;56.27
61963;BME280;47927;42.646;23.096;2023-03-26T02:08:34;91665.13;;;9.73;55.90
61963;BME280;47927;42.646;23.096;2023-03-26T02:11:11;91652.41;;;9.61;55.99
61963;BME280;47927;42.646;23.096;2023-03-26T02:13:40;91649.78;;;9.53;56.45
61963;BME280;47927;42.646;23.096;2023-03-26T02:16:10;91635.22;;;9.34;56.67
61963;BME280;47927;42.646;23.096;2023-03-26T02:18:39;91641.06;;;9.17;57.55
61963;BME280;47927;42.646;23.096;2023-03-26T02:21:14;91634.34;;;9.12;57.63
61963;BME280;47927;42.646;23.096;2023-03-26T02:23:47;91648.97;;;9.39;57.42
61963;BME280;47927;42.646;23.096;2023-03-26T02:26:18;91642.59;;;9.25;57.71
61963;BME280;47927;42.646;23.096;2023-03-26T02:29:03;91655.84;;;9.09;58.01
61963;BME280;47927;42.646;23.096;2023-03-26T02:31:29;91660.59;;;8.97;58.82
61963;BME280;47927;42.646;23.096;2023-03-26T02:33:55;91662.81;;;8.98;59.06
61963;BME280;47927;42.646;23.096;2023-03-26T02:36:40;91663.94;;;8.97;59.15
61963;BME280;47927;42.646;23.096;2023-03-26T02:39:09;91671.22;;;9.29;58.00
61963;BME280;47927;42.646;23.096;2023-03-26T02:41:40;91672.06;;;8.92;58.98
61963;BME280;47927;42.646;23.096;2023-03-26T02:44:08;91675.19;;;8.64;60.30
61963;BME280;47927;42.646;23.096;2023-03-26T02:47:07;91684.41;;;8.58;60.13
61963;BME280;47927;42.646;23.096;2023-03-26T02:49:51;91679.25;;;8.61;60.04
61963;BME280;47927;42.646;23.096;2023-03-26T02:52:25;91690.97;;;8.44;60.48
61963;BME280;47927;42.646;23.096;2023-03-26T02:54:53;91692.34;;;8.72;59.79
61963;BME280;47927;42.646;23.096;2023-03-26T02:57:22;91692.81;;;8.85;59.46
61963;BME280;47927;42.646;23.096;2023-03-26T02:59:51;91701.00;;;8.87;59.59
61963;BME280;47927;42.646;23.096;2023-03-26T03:02:35;91690.72;;;9.05;58.55
61963;BME280;47927;42.646;23.096;2023-03-26T03:05:21;91702.06;;;8.41;60.75
61963;BME280;47927;42.646;23.096;2023-03-26T03:07:54;91710.50;;;8.35;61.59
61963;BME280;47927;42.646;23.096;2023-03-26T03:10:24;91721.78;;;8.87;60.19
61963;BME280;47927;42.646;23.096;2023-03-26T03:13:15;91716.78;;;8.67;60.62
61963;BME280;47927;42.646;23.096;2023-03-26T03:15:41;91721.03;;;8.46;61.41
61963;BME280;47927;42.646;23.096;2023-03-26T03:18:07;91716.25;;;8.51;61.64
61963;BME280;47927;42.646;23.096;2023-03-26T03:20:32;91719.22;;;8.53;61.54
61963;BME280;47927;42.646;23.096;2023-03-26T03:23:00;91726.81;;;8.69;61.82
61963;BME280;47927;42.646;23.096;2023-03-26T03:25:26;91735.56;;;9.46;59.23
61963;BME280;47927;42.646;23.096;2023-03-26T03:27:53;91727.56;;;9.73;58.15
61963;BME280;47927;42.646;23.096;2023-03-26T03:30:18;91716.56;;;9.35;58.88
61963;BME280;47927;42.646;23.096;2023-03-26T03:32:44;91716.97;;;9.44;58.78
61963;BME280;47927;42.646;23.096;2023-03-26T03:35:12;91715.00;;;8.75;60.86
61963;BME280;47927;42.646;23.096;2023-03-26T03:37:39;91731.81;;;8.92;60.66
61963;BME280;47927;42.646;23.096;2023-03-26T03:40:07;91728.97;;;9.63;58.33
61963;BME280;47927;42.646;23.096;2023-03-26T03:42:36;91731.97;;;9.65;58.13
61963;BME280;47927;42.646;23.096;2023-03-26T03:45:04;91729.59;;;9.46;58.59
61963;BME280;47927;42.646;23.096;2023-03-26T03:47:48;91730.06;;;9.58;58.40
61963;BME280;47927;42.646;23.096;2023-03-26T03:50:20;91735.81;;;9.93;57.40
61963;BME280;47927;42.646;23.096;2023-03-26T03:53:06;91726.59;;;10.13;56.63
61963;BME280;47927;42.646;23.096;2023-03-26T03:55:32;91722.81;;;9.96;57.23
61963;BME280;47927;42.646;23.096;2023-03-26T03:57:58;91716.72;;;9.64;57.94
61963;BME280;47927;42.646;23.096;2023-03-26T04:00:25;91712.97;;;9.57;58.28
61963;BME280;47927;42.646;23.096;2023-03-26T04:03:10;91708.22;;;9.67;57.70
61963;BME280;47927;42.646;23.096;2023-03-26T04:05:39;91726.03;;;9.65;58.05
61963;BME280;47927;42.646;23.096;2023-03-26T04:08:05;91743.13;;;9.69;57.87
61963;BME280;47927;42.646;23.096;2023-03-26T04:10:43;91746.88;;;9.75;57.76
61963;BME280;47927;42.646;23.096;2023-03-26T04:13:10;91751.13;;;9.39;58.85
61963;BME280;47927;42.646;23.096;2023-03-26T04:15:51;91747.97;;;9.16;59.91
61963;BME280;47927;42.646;23.096;2023-03-26T04:18:18;91756.41;;;9.53;58.87
61963;BME280;47927;42.646;23.096;2023-03-26T04:20:45;91761.53;;;9.43;59.12
61963;BME280;47927;42.646;23.096;2023-03-26T04:23:17;91771.06;;;9.24;59.33
61963;BME280;47927;42.646;23.096;2023-03-26T04:25:51;91775.28;;;9.43;59.23
61963;BME280;47927;42.646;23.096;2023-03-26T04:28:43;91776.38;;;9.42;58.89
61963;BME280;47927;42.646;23.096;2023-03-26T04:31:19;91787.19;;;9.48;59.06
61963;BME280;47927;42.646;23.096;2023-03-26T04:33:55;91782.53;;;9.75;57.70
61963;BME280;47927;42.646;23.096;2023-03-26T04:36:31;91795.84;;;9.59;58.05
61963;BME280;47927;42.646;23.096;2023-03-26T04:39:00;91801.38;;;10.20;56.30
61963;BME280;47927;42.646;23.096;2023-03-26T04:41:47;91803.31;;;10.30;55.84
61963;BME280;47927;42.646;23.096;2023-03-26T04:44:17;91811.00;;;10.09;56.85
61963;BME280;47927;42.646;23.096;2023-03-26T04:47:07;91817.16;;;10.41;55.59
61963;BME280;47927;42.646;23.096;2023-03-26T04:49:41;91814.16;;;10.39;55.17
61963;BME280;47927;42.646;23.096;2023-03-26T04:52:10;91811.50;;;10.29;55.13
61963;BME280;47927;42.646;23.096;2023-03-26T04:54:55;91806.00;;;10.44;54.40
61963;BME280;47927;42.646;23.096;2023-03-26T04:57:32;91805.31;;;9.92;55.73
61963;BME280;47927;42.646;23.096;2023-03-26T05:00:12;91813.75;;;10.34;54.68
61963;BME280;47927;42.646;23.096;2023-03-26T05:02:42;91802.66;;;10.47;53.82
61963;BME280;47927;42.646;23.096;2023-03-26T05:05:08;91815.69;;;10.58;53.91
61963;BME280;47927;42.646;23.096;2023-03-26T05:07:35;91808.72;;;10.80;53.24
61963;BME280;47927;42.646;23.096;2023-03-26T05:10:01;91818.44;;;10.98;52.35
61963;BME280;47927;42.646;23.096;2023-03-26T05:12:59;91821.84;;;11.95;50.24
61963;BME280;47927;42.646;23.096;2023-03-26T05:15:29;91819.34;;;12.75;47.94
61963;BME280;47927;42.646;23.096;2023-03-26T05:18:08;91822.88;;;15.44;42.36
61963;BME280;47927;42.646;23.096;2023-03-26T05:20:39;91810.25;;;17.62;38.16
61963;BME280;47927;42.646;23.096;2023-03-26T05:23:07;91817.31;;;19.27;34.97
61963;BME280;47927;42.646;23.096;2023-03-26T05:25:36;91826.44;;;20.38;33.27
61963;BME280;47927;42.646;23.096;2023-03-26T05:28:04;91823.44;;;20.92;31.62
61963;BME280;47927;42.646;23.096;2023-03-26T05:30:51;91829.00;;;22.47;29.01
61963;BME280;47927;42.646;23.096;2023-03-26T05:33:19;91828.34;;;23.77;27.03
61963;BME280;47927;42.646;23.096;2023-03-26T05:36:05;91825.19;;;25.43;24.56
61963;BME280;47927;42.646;23.096;2023-03-26T05:38:32;91822.16;;;25.21;25.12
61963;BME280;47927;42.646;23.096;2023-03-26T05:41:00;91828.66;;;26.00;23.58
61963;BME280;47927;42.646;23.096;2023-03-26T05:43:27;91824.31;;;27.04;22.16
61963;BME280;47927;42.646;23.096;2023-03-26T05:46:08;91821.69;;;27.36;21.24
61963;BME280;47927;42.646;23.096;2023-03-26T05:48:34;91835.38;;;27.44;21.16
61963;BME280;47927;42.646;23.096;2023-03-26T05:50:59;91833.97;;;28.72;19.94
61963;BME280;47927;42.646;23.096;2023-03-26T05:53:28;91836.31;;;29.80;18.36
61963;BME280;47927;42.646;23.096;2023-03-26T05:56:12;91831.19;;;29.93;17.58
61963;BME280;47927;42.646;23.096;2023-03-26T05:58:56;91835.84;;;29.93;17.63
61963;BME280;47927;42.646;23.096;2023-03-26T06:01:48;91839.72;;;31.37;16.67
61963;BME280;47927;42.646;23.096;2023-03-26T06:04:34;91846.28;;;32.07;16.02
61963;BME280;47927;42.646;23.096;2023-03-26T06:07:18;91842.56;;;32.35;15.34
61963;BME280;47927;42.646;23.096;2023-03-26T06:09:54;91854.13;;;32.54;15.23
61963;BME280;47927;42.646;23.096;2023-03-26T06:12:20;91839.50;;;32.68;15.26
61963;BME280;47927;42.646;23.096;2023-03-26T06:14:46;91835.44;;;32.62;15.28
61963;BME280;47927;42.646;23.096;2023-03-26T06:17:30;91840.97;;;33.45;15.26
61963;BME280;47927;42.646;23.096;2023-03-26T06:20:10;91839.44;;;33.50;14.31
61963;BME280;47927;42.646;23.096;2023-03-26T06:22:39;91836.13;;;33.25;14.60
61963;BME280;47927;42.646;23.096;2023-03-26T06:25:36;91834.97;;;34.30;13.13
61963;BME280;47927;42.646;23.096;2023-03-26T06:28:17;91834.22;;;32.82;14.73
61963;BME280;47927;42.646;23.096;2023-03-26T06:31:05;91834.31;;;33.46;14.20
61963;BME280;47927;42.646;23.096;2023-03-26T06:33:34;91835.28;;;33.81;13.65
61963;BME280;47927;42.646;23.096;2023-03-26T06:36:00;91834.66;;;34.34;13.19
61963;BME280;47927;42.646;23.096;2023-03-26T06:38:26;91832.97;;;31.90;14.65
61963;BME280;47927;42.646;23.096;2023-03-26T06:40:52;91833.31;;;32.55;14.30
61963;BME280;47927;42.646;23.096;2023-03-26T06:43:18;91835.06;;;33.79;13.93
61963;BME280;47927;42.646;23.096;2023-03-26T06:45:53;91844.53;;;34.31;13.10
61963;BME280;47927;42.646;23.096;2023-03-26T06:48:41;91841.22;;;33.79;13.52
61963;BME280;47927;42.646;23.096;2023-03-26T06:51:16;91851.16;;;31.48;15.12
61963;BME280;47927;42.646;23.096;2023-03-26T06:54:00;91861.44;;;32.59;14.68
61963;BME280;47927;42.646;23.096;2023-03-26T06:56:44;91859.31;;;31.67;14.55
61963;BME280;47927;42.646;23.096;2023-03-26T06:59:28;91843.88;;;31.68;15.09
61963;BME280;47927;42.646;23.096;2023-03-26T07:02:12;91861.09;;;31.95;14.87
61963;BME280;47927;42.646;23.096;2023-03-26T07:04:56;91859.38;;;32.47;14.09
61963;BME280;47927;42.646;23.096;2023-03-26T07:07:51;91859.69;;;33.24;13.94
61963;BME280;47927;42.646;23.096;2023-03-26T07:10:35;91861.91;;;33.77;13.27
61963;BME280;47927;42.646;23.096;2023-03-26T07:13:10;91842.34;;;32.08;14.93
61963;BME280;47927;42.646;23.096;2023-03-26T07:16:14;91846.78;;;32.98;14.29
61963;BME280;47927;42.646;23.096;2023-03-26T07:18:58;91852.72;;;33.48;13.29
61963;BME280;47927;42.646;23.096;2023-03-26T07:21:30;91852.84;;;35.00;12.69
61963;BME280;47927;42.646;23.096;2023-03-26T07:23:56;91851.22;;;34.57;13.10
61963;BME280;47927;42.646;23.096;2023-03-26T07:26:52;91851.84;;;33.91;12.80
61963;BME280;47927;42.646;23.096;2023-03-26T07:35:16;91841.19;;;31.32;15.12
61963;BME280;47927;42.646;23.096;2023-03-26T07:38:22;91844.88;;;32.25;13.76
61963;BME280;47927;42.646;23.096;2023-03-26T07:41:43;91846.22;;;33.05;13.25
61963;BME280;47927;42.646;23.096;2023-03-26T07:47:41;91836.97;;;27.04;17.22
61963;BME280;47927;42.646;23.096;2023-03-26T07:50:23;91839.81;;;27.00;18.02
61963;BME280;47927;42.646;23.096;2023-03-26T07:53:17;91843.63;;;29.46;16.05
61963;BME280;47927;42.646;23.096;2023-03-26T08:08:21;91838.00;;;27.12;17.36
61963;BME280;47927;42.646;23.096;2023-03-26T08:14:35;91851.78;;;25.38;19.67
61963;BME280;47927;42.646;23.096;2023-03-26T08:17:28;91842.66;;;24.13;20.58
61963;BME280;47927;42.646;23.096;2023-03-26T08:22:37;91841.38;;;27.07;18.43
61963;BME280;47927;42.646;23.096;2023-03-26T08:25:33;91842.66;;;28.07;16.61
61963;BME280;47927;42.646;23.096;2023-03-26T08:28:28;91841.22;;;26.49;17.20
61963;BME280;47927;42.646;23.096;2023-03-26T08:30:58;91835.50;;;28.95;15.70
61963;BME280;47927;42.646;23.096;2023-03-26T08:33:27;91832.19;;;29.73;14.37
61963;BME280;47927;42.646;23.096;2023-03-26T08:35:53;91841.69;;;29.97;14.19
61963;BME280;47927;42.646;23.096;2023-03-26T08:38:19;91843.31;;;30.39;14.08
61963;BME280;47927;42.646;23.096;2023-03-26T08:54:24;91852.75;;;32.91;12.17
61963;BME280;47927;42.646;23.096;2023-03-26T09:21:53;91840.31;;;31.60;11.61
61963;BME280;47927;42.646;23.096;2023-03-26T09:41:02;91826.97;;;30.96;12.44
61963;BME280;47927;42.646;23.096;2023-03-26T09:49:40;91818.94;;;30.15;12.75
61963;BME280;47927;42.646;23.096;2023-03-26T09:55:56;91815.31;;;29.22;13.23
61963;BME280;47927;42.646;23.096;2023-03-26T10:01:57;91803.44;;;28.52;13.80
61963;BME280;47927;42.646;23.096;2023-03-26T10:10:24;91791.44;;;27.19;13.84
61963;BME280;47927;42.646;23.096;2023-03-26T10:13:01;91793.41;;;27.87;13.23
61963;BME280;47927;42.646;23.096;2023-03-26T10:18:21;91774.66;;;27.93;13.24
61963;BME280;47927;42.646;23.096;2023-03-26T10:21:16;91770.81;;;26.99;14.32
61963;BME280;47927;42.646;23.096;2023-03-26T10:34:28;91742.03;;;26.88;15.75
61963;BME280;47927;42.646;23.096;2023-03-26T10:37:07;91738.84;;;26.84;15.82
61963;BME280;47927;42.646;23.096;2023-03-26T10:53:07;91731.72;;;25.02;17.54
61963;BME280;47927;42.646;23.096;2023-03-26T10:55:43;91725.69;;;25.73;16.45
61963;BME280;47927;42.646;23.096;2023-03-26T10:58:21;91732.56;;;25.59;15.80
61963;BME280;47927;42.646;23.096;2023-03-26T11:00:59;91713.47;;;25.66;16.04
61963;BME280;47927;42.646;23.096;2023-03-26T11:03:50;91716.34;;;25.27;16.99
61963;BME280;47927;42.646;23.096;2023-03-26T11:09:28;91715.78;;;25.94;16.69
61963;BME280;47927;42.646;23.096;2023-03-26T11:14:23;91704.88;;;24.62;17.60
61963;BME280;47927;42.646;23.096;2023-03-26T11:20:16;91656.69;;;23.67;16.72
61963;BME280;47927;42.646;23.096;2023-03-26T11:28:34;91699.69;;;23.65;18.11
61963;BME280;47927;42.646;23.096;2023-03-26T11:33:41;91687.91;;;23.57;18.00
61963;BME280;47927;42.646;23.096;2023-03-26T11:36:11;91680.50;;;23.04;18.25
61963;BME280;47927;42.646;23.096;2023-03-26T11:38:43;91673.41;;;23.34;18.71
61963;BME280;47927;42.646;23.096;2023-03-26T11:41:30;91670.28;;;23.45;18.78
61963;BME280;47927;42.646;23.096;2023-03-26T11:44:16;91662.06;;;23.34;18.16
61963;BME280;47927;42.646;23.096;2023-03-26T11:46:44;91666.59;;;23.66;17.53
61963;BME280;47927;42.646;23.096;2023-03-26T11:49:12;91657.88;;;23.66;18.65
61963;BME280;47927;42.646;23.096;2023-03-26T11:51:41;91651.06;;;23.50;18.74
61963;BME280;47927;42.646;23.096;2023-03-26T11:54:10;91647.53;;;22.78;18.91
61963;BME280;47927;42.646;23.096;2023-03-26T11:56:45;91653.31;;;23.42;19.31
61963;BME280;47927;42.646;23.096;2023-03-26T11:59:19;91639.84;;;23.46;18.71
61963;BME280;47927;42.646;23.096;2023-03-26T12:04:18;91634.50;;;22.98;19.61
61963;BME280;47927;42.646;23.096;2023-03-26T12:06:55;91629.31;;;22.61;19.98
61963;BME280;47927;42.646;23.096;2023-03-26T12:09:22;91625.69;;;22.83;19.46
61963;BME280;47927;42.646;23.096;2023-03-26T12:11:52;91632.84;;;22.67;20.08
61963;BME280;47927;42.646;23.096;2023-03-26T12:14:23;91618.78;;;22.06;19.50
61963;BME280;47927;42.646;23.096;2023-03-26T12:17:08;91618.50;;;22.13;20.25
61963;BME280;47927;42.646;23.096;2023-03-26T12:19:41;91604.34;;;22.07;19.75
61963;BME280;47927;42.646;23.096;2023-03-26T12:22:31;91610.13;;;22.57;19.58
61963;BME280;47927;42.646;23.096;2023-03-26T12:25:21;91598.09;;;22.80;19.20
61963;BME280;47927;42.646;23.096;2023-03-26T12:27:56;91605.38;;;22.70;19.18
61963;BME280;47927;42.646;23.096;2023-03-26T12:30:27;91604.22;;;22.62;18.86
61963;BME280;47927;42.646;23.096;2023-03-26T12:32:57;91582.16;;;21.58;20.36
61963;BME280;47927;42.646;23.096;2023-03-26T12:35:30;91584.16;;;21.17;20.79
61963;BME280;47927;42.646;23.096;2023-03-26T12:40:38;91588.50;;;21.61;20.31
61963;BME280;47927;42.646;23.096;2023-03-26T12:43:24;91584.78;;;21.31;19.71
61963;BME280;47927;42.646;23.096;2023-03-26T12:45:54;91573.94;;;20.79;20.40
61963;BME280;47927;42.646;23.096;2023-03-26T12:48:20;91576.72;;;20.76;20.34
61963;BME280;47927;42.646;23.096;2023-03-26T12:51:13;91575.41;;;20.80;20.17
61963;BME280;47927;42.646;23.096;2023-03-26T13:02:49;91576.56;;;19.64;22.27
61963;BME280;47927;42.646;23.096;2023-03-26T13:05:36;91567.50;;;19.65;22.11
61963;BME280;47927;42.646;23.096;2023-03-26T13:10:36;91572.56;;;19.37;21.54
61963;BME280;47927;42.646;23.096;2023-03-26T13:15:51;91561.53;;;19.17;20.69
61963;BME280;47927;42.646;23.096;2023-03-26T13:18:43;91555.56;;;19.82;20.08
61963;BME280;47927;42.646;23.096;2023-03-26T13:21:22;91558.63;;;20.02;20.25
61963;BME280;47927;42.646;23.096;2023-03-26T13:32:11;91562.59;;;19.19;20.74
61963;BME280;47927;42.646;23.096;2023-03-26T13:35:09;91550.25;;;19.60;19.98
61963;BME280;47927;42.646;23.096;2023-03-26T13:48:43;91554.63;;;18.72;20.16
61963;BME280;47927;42.646;23.096;2023-03-26T13:51:27;91538.94;;;18.68;20.09
61963;BME280;47927;42.646;23.096;2023-03-26T13:54:04;91538.16;;;18.67;21.10
61963;BME280;47927;42.646;23.096;2023-03-26T13:56:38;91529.72;;;18.73;21.41
61963;BME280;47927;42.646;23.096;2023-03-26T13:59:35;91539.59;;;18.21;21.21
61963;BME280;47927;42.646;23.096;2023-03-26T14:02:06;91536.94;;;18.59;20.07
61963;BME280;47927;42.646;23.096;2023-03-26T14:04:40;91539.88;;;18.49;19.94
61963;BME280;47927;42.646;23.096;2023-03-26T14:07:22;91529.75;;;18.60;19.55
61963;BME280;47927;42.646;23.096;2023-03-26T14:10:08;91525.53;;;18.62;18.92
61963;BME280;47927;42.646;23.096;2023-03-26T14:17:59;91514.38;;;18.20;20.12
61963;BME280;47927;42.646;23.096;2023-03-26T14:27:00;91519.88;;;18.38;19.30
61963;BME280;47927;42.646;23.096;2023-03-26T14:35:36;91494.78;;;17.41;20.59
61963;BME280;47927;42.646;23.096;2023-03-26T14:38:29;91506.00;;;17.28;21.00
61963;BME280;47927;42.646;23.096;2023-03-26T14:52:19;91504.47;;;17.98;19.70
61963;BME280;47927;42.646;23.096;2023-03-26T14:54:50;91500.88;;;18.05;18.77
61963;BME280;47927;42.646;23.096;2023-03-26T15:06:05;91506.28;;;17.72;19.23
61963;BME280;47927;42.646;23.096;2023-03-26T15:11:44;91500.19;;;17.21;18.96
61963;BME280;47927;42.646;23.096;2023-03-26T15:18:27;91499.44;;;17.62;19.05
61963;BME280;47927;42.646;23.096;2023-03-26T15:20:51;91496.09;;;17.03;18.98
61963;BME280;47927;42.646;23.096;2023-03-26T15:26:25;91504.13;;;16.83;20.40
61963;BME280;47927;42.646;23.096;2023-03-26T15:29:49;91510.53;;;16.99;20.65
61963;BME280;47927;42.646;23.096;2023-03-26T15:34:42;91501.47;;;17.00;21.06
61963;BME280;47927;42.646;23.096;2023-03-26T15:40:26;91497.03;;;16.97;20.92
61963;BME280;47927;42.646;23.096;2023-03-26T15:43:18;91487.44;;;16.90;21.06
61963;BME280;47927;42.646;23.096;2023-03-26T15:45:51;91497.22;;;16.90;20.92
61963;BME280;47927;42.646;23.096;2023-03-26T15:51:44;91493.44;;;16.91;20.42
61963;BME280;47927;42.646;23.096;2023-03-26T15:54:54;91497.81;;;16.81;21.84
61963;BME280;47927;42.646;23.096;2023-03-26T15:57:33;91501.84;;;16.53;23.25
61963;BME280;47927;42.646;23.096;2023-03-26T16:00:18;91502.91;;;16.06;25.00
61963;BME280;47927;42.646;23.096;2023-03-26T16:11:12;91507.28;;;16.46;24.28
61963;BME280;47927;42.646;23.096;2023-03-26T16:18:45;91502.97;;;16.03;25.00
61963;BME280;47927;42.646;23.096;2023-03-26T16:24:20;91510.41;;;15.88;25.49
61963;BME280;47927;42.646;23.096;2023-03-26T16:26:58;91514.09;;;15.74;25.48
61963;BME280;47927;42.646;23.096;2023-03-26T16:29:26;91533.28;;;15.71;25.63
61963;BME280;47927;42.646;23.096;2023-03-26T16:32:15;91525.66;;;15.57;25.97
61963;BME280;47927;42.646;23.096;2023-03-26T16:34:48;91517.44;;;15.55;25.98
61963;BME280;47927;42.646;23.096;2023-03-26T16:37:35;91525.53;;;15.44;25.93
61963;BME280;47927;42.646;23.096;2023-03-26T16:42:48;91526.34;;;15.21;26.74
61963;BME280;47927;42.646;23.096;2023-03-26T16:45:22;91520.00;;;15.18;26.66
61963;BME280;47927;42.646;23.096;2023-03-26T16:50:44;91524.56;;;14.94;28.36
61963;BME280;47927;42.646;23.096;2023-03-26T16:56:24;91516.63;;;14.74;29.52
61963;BME280;47927;42.646;23.096;2023-03-26T16:59:05;91516.97;;;14.02;31.76
61963;BME280;47927;42.646;23.096;2023-03-26T17:01:49;91515.16;;;13.38;32.84
61963;BME280;47927;42.646;23.096;2023-03-26T17:04:23;91503.88;;;12.72;33.65
61963;BME280;47927;42.646;23.096;2023-03-26T17:07:15;91525.72;;;11.99;36.00
61963;BME280;47927;42.646;23.096;2023-03-26T17:09:56;91528.94;;;11.55;37.12
61963;BME280;47927;42.646;23.096;2023-03-26T17:17:57;91528.34;;;11.08;38.30
61963;BME280;47927;42.646;23.096;2023-03-26T17:21:17;91535.72;;;11.27;37.81
61963;BME280;47927;42.646;23.096;2023-03-26T17:27:00;91536.72;;;11.62;37.24
61963;BME280;47927;42.646;23.096;2023-03-26T17:45:08;91528.78;;;11.87;34.74
61963;BME280;47927;42.646;23.096;2023-03-26T17:47:47;91531.75;;;11.82;35.78
61963;BME280;47927;42.646;23.096;2023-03-26T17:53:15;91521.66;;;11.07;38.19
61963;BME280;47927;42.646;23.096;2023-03-26T17:55:43;91525.78;;;10.93;38.29
61963;BME280;47927;42.646;23.096;2023-03-26T17:58:26;91524.31;;;10.92;38.34
61963;BME280;47927;42.646;23.096;2023-03-26T18:01:26;91526.56;;;10.58;38.68
61963;BME280;47927;42.646;23.096;2023-03-26T18:03:57;91499.44;;;10.48;38.23
61963;BME280;47927;42.646;23.096;2023-03-26T18:09:36;91524.72;;;10.69;38.37
61963;BME280;47927;42.646;23.096;2023-03-26T18:17:00;91520.25;;;10.77;38.29
61963;BME280;47927;42.646;23.096;2023-03-26T18:19:27;91519.50;;;10.69;38.37
61963;BME280;47927;42.646;23.096;2023-03-26T18:21:57;91488.63;;;10.46;38.65
61963;BME280;47927;42.646;23.096;2023-03-26T18:24:34;91513.56;;;10.44;39.37
61963;BME280;47927;42.646;23.096;2023-03-26T18:27:04;91512.84;;;10.36;39.36
61963;BME280;47927;42.646;23.096;2023-03-26T18:29:34;91510.94;;;9.97;40.61
61963;BME280;47927;42.646;23.096;2023-03-26T18:34:38;91513.19;;;10.17;40.02
61963;BME280;47927;42.646;23.096;2023-03-26T18:37:19;91518.78;;;10.33;39.48
61963;BME280;47927;42.646;23.096;2023-03-26T18:40:04;91515.44;;;10.51;39.45
61963;BME280;47927;42.646;23.096;2023-03-26T18:42:37;91514.31;;;10.41;38.85
61963;BME280;47927;42.646;23.096;2023-03-26T18:47:52;91496.81;;;10.16;40.45
61963;BME280;47927;42.646;23.096;2023-03-26T18:50:25;91494.59;;;10.15;40.05
61963;BME280;47927;42.646;23.096;2023-03-26T18:52:51;91496.41;;;9.78;40.98
61963;BME280;47927;42.646;23.096;2023-03-26T18:55:17;91499.72;;;9.50;41.62